Time;durP1;ratioP1;P1;durP2;ratioP2;P2;SDS_P1;SDS_P2;PMS_P1;PMS_P2;Temp;Humidity;BMP_temperature;BMP_pressure;BME280_temperature;BME280_humidity;BME280_pressure;Samples;Min_cycle;Max_cycle;Signal;HPM_P1;HPM_P2
2022/09/22 03:54:38;;;;;;;;;;;21.10;69.50;;;;;;5161389;23;19932;-76
2022/09/22 03:57:05;;;;;;;;;;;21.10;69.50;;;;;;5034579;28;19973;-76
2022/09/22 03:59:31;;;;;;;;;;;21.10;69.60;;;;;;5034477;28;20015;-76
2022/09/22 04:01:59;;;;;;;;;;;21.10;69.60;;;;;;5034512;28;19934;-75
2022/09/22 04:04:26;;;;;;;;;;;21.10;69.60;;;;;;5034506;28;19929;-75
2022/09/22 04:06:53;;;;;;;;;;;21.10;69.60;;;;;;5034073;28;19925;-75
2022/09/22 04:09:19;;;;;;;;;;;21.10;69.70;;;;;;5037327;28;19975;-82
2022/09/22 04:11:47;;;;;;;;;;;21.10;69.70;;;;;;5035840;28;19975;-83
2022/09/22 04:14:14;;;;;;;;;;;21.10;69.70;;;;;;5035826;28;20020;-81
2022/09/22 04:16:41;;;;;;;;;;;21.10;69.80;;;;;;5037571;28;19965;-82
2022/09/22 04:19:08;;;;;;;;;;;21.10;69.90;;;;;;5035937;28;19925;-82
2022/09/22 04:21:34;;;;;;;;;;;21.10;69.90;;;;;;5036194;28;19932;-82
2022/09/22 04:24:01;;;;;;;;;;;21.10;70.00;;;;;;5035237;28;19968;-82
2022/09/22 04:26:28;;;;;;;;;;;21.00;69.90;;;;;;5034518;28;19925;-79
2022/09/22 04:28:56;;;;;;;;;;;21.10;70.10;;;;;;5035167;28;20012;-80
2022/09/22 04:31:23;;;;;;;;;;;21.10;70.20;;;;;;5036014;28;19932;-78
2022/09/22 04:33:49;;;;;;;;;;;21.10;70.40;;;;;;5035309;28;19987;-82
2022/09/22 04:36:16;;;;;;;;;;;21.10;70.50;;;;;;5034943;28;20008;-85
2022/09/22 04:38:43;;;;;;;;;;;21.10;70.80;;;;;;5036289;28;20008;-84
2022/09/22 04:41:09;;;;;;;;;;;21.10;70.90;;;;;;5036403;28;20300;-83
2022/09/22 04:43:36;;;;;;;;;;;21.10;71.20;;;;;;5036163;28;20016;-80
2022/09/22 04:46:04;;;;;;;;;;;21.20;71.50;;;;;;5036872;28;19932;-82
2022/09/22 04:48:31;;;;;;;;;;;21.10;71.50;;;;;;5035861;28;19932;-81
2022/09/22 04:50:58;;;;;;;;;;;21.20;71.70;;;;;;5035408;28;20295;-80
2022/09/22 04:53:24;;;;;;;;;;;21.20;71.80;;;;;;5037922;28;19925;-83
2022/09/22 04:55:51;;;;;;;;;;;21.20;71.90;;;;;;5035907;28;19932;-84
2022/09/22 04:58:18;;;;;;;;;;;21.20;72.80;;;;;;5036582;28;19961;-83
2022/09/22 05:00:44;;;;;;;;;;;21.10;72.00;;;;;;5036448;28;19968;-83
2022/09/22 05:03:13;;;;;;;;;;;21.20;72.20;;;;;;5036502;28;19948;-81
2022/09/22 05:05:39;;;;;;;;;;;21.10;72.00;;;;;;5037462;28;19936;-84
2022/09/22 05:08:06;;;;;;;;;;;21.10;71.80;;;;;;5036879;28;19925;-84
2022/09/22 05:10:35;;;;;;;;;;;21.10;71.70;;;;;;5036472;28;20376;-84
2022/09/22 10:09:29;;;;;;;;;;;21.10;65.60;;;;;;5115977;23;19925;-73
2022/09/22 10:11:59;;;;;;;;;;;21.10;65.60;;;;;;5038994;28;19925;-72
2022/09/22 10:14:27;;;;;;;;;;;21.10;65.60;;;;;;5038901;28;19925;-72
2022/09/22 10:16:54;;;;;;;;;;;21.10;65.60;;;;;;5038551;28;19925;-72
2022/09/22 10:19:22;;;;;;;;;;;21.10;65.70;;;;;;5036291;28;20007;-73
2022/09/22 10:21:48;;;;;;;;;;;21.20;65.80;;;;;;5036353;28;19975;-72
2022/09/22 10:24:24;;;;;;;;;;;21.20;65.80;;;;;;5036178;28;19968;-72
2022/09/22 10:26:55;;;;;;;;;;;21.20;65.90;;;;;;5036062;28;20025;-76
2022/09/22 10:29:21;;;;;;;;;;;21.20;65.90;;;;;;5035486;28;20380;-75
2022/09/22 10:32:02;;;;;;;;;;;21.20;65.90;;;;;;5039971;28;19925;-75
2022/09/22 10:34:30;;;;;;;;;;;21.20;66.00;;;;;;5041692;28;20626;-76
2022/09/22 10:36:58;;;;;;;;;;;21.20;66.00;;;;;;5041797;28;20048;-76
2022/09/22 10:39:32;;;;;;;;;;;21.20;66.90;;;;;;5041896;28;19925;-75
2022/09/22 10:42:02;;;;;;;;;;;21.20;66.20;;;;;;5042024;28;20007;-76
2022/09/22 10:44:31;;;;;;;;;;;21.20;66.30;;;;;;5041723;28;19929;-76
2022/09/22 10:47:05;;;;;;;;;;;21.20;66.50;;;;;;5040159;28;19925;-76
2022/09/22 10:49:41;;;;;;;;;;;21.20;66.70;;;;;;5041000;28;19931;-76
2022/09/22 10:52:13;;;;;;;;;;;21.20;67.10;;;;;;5035826;28;19925;-76
2022/09/22 10:54:44;;;;;;;;;;;21.30;67.30;;;;;;5035056;28;19965;-75
2022/09/22 10:57:17;;;;;;;;;;;21.30;67.70;;;;;;5035635;28;19925;-75
2022/09/22 11:00:11;;;;;;;;;;;21.40;68.30;;;;;;5035495;28;19925;-75
2022/09/22 11:02:54;;;;;;;;;;;21.40;68.80;;;;;;5011217;28;19969;-76
2022/09/22 11:13:52;;;;;;;;;;;21.50;70.50;;;;;;5035497;28;20430;-76
2022/09/22 11:16:34;;;;;;;;;;;21.50;71.00;;;;;;5034950;28;20331;-77
2022/09/22 11:19:13;;;;;;;;;;;21.50;71.40;;;;;;5033418;28;19933;-76
2022/09/22 11:21:46;;;;;;;;;;;21.50;71.70;;;;;;5035203;28;19931;-77
2022/09/22 11:24:19;;;;;;;;;;;21.50;72.00;;;;;;5035295;28;19925;-77
2022/09/22 11:26:47;;;;;;;;;;;21.50;72.30;;;;;;5035138;28;20050;-77
2022/09/22 11:29:31;;;;;;;;;;;21.50;72.60;;;;;;5034974;28;20017;-77
2022/09/22 11:32:06;;;;;;;;;;;21.50;72.90;;;;;;5014329;28;19931;-76
2022/09/22 11:34:41;;;;;;;;;;;21.50;73.10;;;;;;5034992;28;19925;-76
2022/09/22 11:37:25;;;;;;;;;;;21.50;73.40;;;;;;5035574;28;19925;-77
2022/09/22 11:39:59;;;;;;;;;;;21.50;73.70;;;;;;5034820;28;19958;-77
2022/09/22 11:42:31;;;;;;;;;;;21.50;73.90;;;;;;5034889;28;19931;-76
2022/09/22 11:45:02;;;;;;;;;;;21.50;74.20;;;;;;5034807;28;19925;-77
2022/09/22 11:47:46;;;;;;;;;;;21.50;74.40;;;;;;5034878;28;20007;-77
2022/09/22 11:50:31;;;;;;;;;;;21.50;74.50;;;;;;5034604;28;19924;-77
2022/09/22 11:53:04;;;;;;;;;;;21.50;74.70;;;;;;5034502;28;20299;-76
2022/09/22 11:55:35;;;;;;;;;;;21.50;74.90;;;;;;5035410;28;19932;-78
2022/09/22 11:58:05;;;;;;;;;;;21.50;75.30;;;;;;5036039;28;19932;-78
2022/09/22 12:00:36;;;;;;;;;;;21.50;75.30;;;;;;5036232;28;19925;-78
2022/09/22 12:03:08;;;;;;;;;;;21.50;75.30;;;;;;5034498;28;19925;-77
2022/09/22 12:05:38;;;;;;;;;;;21.50;75.30;;;;;;5034610;28;19925;-77
2022/09/22 12:08:07;;;;;;;;;;;21.50;75.30;;;;;;5034785;28;19936;-77
2022/09/22 12:10:34;;;;;;;;;;;21.50;76.10;;;;;;5033907;28;19925;-77
2022/09/22 12:13:01;;;;;;;;;;;21.50;75.50;;;;;;5034315;28;19931;-77
2022/09/22 12:15:31;;;;;;;;;;;21.50;75.50;;;;;;5034324;28;19925;-77
2022/09/22 12:18:01;;;;;;;;;;;21.40;75.60;;;;;;5033842;28;20459;-76
2022/09/22 12:20:33;;;;;;;;;;;21.40;75.70;;;;;;5034195;28;19926;-76
2022/09/22 12:23:15;;;;;;;;;;;21.40;75.80;;;;;;5038885;28;19925;-76
2022/09/22 12:25:43;;;;;;;;;;;21.40;75.80;;;;;;5030577;28;19933;-77
2022/09/22 12:28:15;;;;;;;;;;;21.40;75.90;;;;;;5039456;28;19925;-77
2022/09/22 12:30:52;;;;;;;;;;;21.40;76.00;;;;;;5038730;28;19925;-77
2022/09/22 12:33:21;;;;;;;;;;;21.40;76.00;;;;;;5040130;28;19968;-77
2022/09/22 12:35:54;;;;;;;;;;;21.30;76.00;;;;;;5039115;28;19979;-77
2022/09/22 12:38:22;;;;;;;;;;;21.30;76.00;;;;;;5039679;28;20398;-77
2022/09/22 12:40:50;;;;;;;;;;;21.30;76.10;;;;;;5040055;28;19932;-77
2022/09/22 12:43:20;;;;;;;;;;;21.30;76.10;;;;;;5039648;28;19925;-77
2022/09/22 12:45:48;;;;;;;;;;;21.30;76.20;;;;;;5040109;28;20296;-77
2022/09/22 12:48:16;;;;;;;;;;;21.30;76.20;;;;;;5039911;28;19925;-77
2022/09/22 12:50:44;;;;;;;;;;;21.30;76.30;;;;;;5038365;28;20363;-77
2022/09/22 12:53:24;;;;;;;;;;;21.30;76.30;;;;;;5038762;28;19925;-77
2022/09/22 12:55:52;;;;;;;;;;;21.30;76.40;;;;;;5039463;28;20280;-77
2022/09/22 12:58:37;;;;;;;;;;;21.30;76.40;;;;;;5038938;28;19932;-77
2022/09/22 13:01:20;;;;;;;;;;;21.30;76.50;;;;;;5039944;28;20336;-76
2022/09/22 13:03:49;;;;;;;;;;;21.20;76.40;;;;;;5039135;28;19933;-76
2022/09/22 13:06:43;;;;;;;;;;;21.30;76.50;;;;;;5040128;28;20373;-74
2022/09/22 13:09:20;;;;;;;;;;;21.20;76.50;;;;;;5038332;28;20008;-76
2022/09/22 13:12:05;;;;;;;;;;;21.20;76.70;;;;;;5038697;28;20351;-77
2022/09/22 13:14:51;;;;;;;;;;;21.30;76.90;;;;;;5039435;28;19976;-77
2022/09/22 13:17:39;;;;;;;;;;;21.20;76.90;;;;;;5038737;28;19925;-76
2022/09/22 13:20:17;;;;;;;;;;;21.20;77.10;;;;;;5035864;28;19936;-76
2022/09/22 13:22:45;;;;;;;;;;;21.20;77.30;;;;;;5039048;28;19925;-77
2022/09/22 13:25:30;;;;;;;;;;;21.20;77.40;;;;;;5041189;28;19925;-77
2022/09/22 13:28:20;;;;;;;;;;;21.30;77.70;;;;;;5036119;28;19983;-74
2022/09/22 13:30:59;;;;;;;;;;;21.20;77.80;;;;;;5026071;28;19932;-78
2022/09/22 13:33:27;;;;;;;;;;;21.30;78.10;;;;;;5036814;28;20299;-79
2022/09/22 13:35:58;;;;;;;;;;;21.30;78.20;;;;;;5037499;28;19991;-80
2022/09/22 13:38:25;;;;;;;;;;;21.30;78.30;;;;;;5037190;28;20340;-79
2022/09/22 13:40:52;;;;;;;;;;;21.30;78.40;;;;;;5037870;28;19925;-79
2022/09/22 13:43:23;;;;;;;;;;;21.30;78.60;;;;;;5039191;28;20028;-79
2022/09/22 13:45:51;;;;;;;;;;;21.20;78.60;;;;;;5040888;28;19929;-79
2022/09/22 13:48:18;;;;;;;;;;;21.30;78.90;;;;;;5040694;28;19972;-78
2022/09/22 13:50:48;;;;;;;;;;;21.30;79.10;;;;;;5041061;28;19936;-78
2022/09/22 13:53:16;;;;;;;;;;;21.30;79.20;;;;;;5040566;28;19925;-76
2022/09/22 13:55:47;;;;;;;;;;;21.30;79.30;;;;;;5040455;28;19956;-76
2022/09/22 13:58:15;;;;;;;;;;;21.20;79.40;;;;;;5042096;28;19932;-75
2022/09/22 14:00:46;;;;;;;;;;;21.20;79.50;;;;;;5040112;28;19925;-72
2022/09/22 14:03:16;;;;;;;;;;;21.30;79.80;;;;;;5040279;28;20031;-72
2022/09/22 14:05:44;;;;;;;;;;;21.30;80.00;;;;;;5039842;28;20331;-77
2022/09/22 14:08:11;;;;;;;;;;;21.20;79.90;;;;;;5036286;28;19932;-76
2022/09/22 14:10:40;;;;;;;;;;;21.20;80.00;;;;;;5036545;28;19937;-78
2022/09/22 14:13:22;;;;;;;;;;;21.20;80.20;;;;;;5041714;28;19935;-74
2022/09/22 14:15:49;;;;;;;;;;;21.20;81.20;;;;;;5042393;28;19925;-77
2022/09/22 14:18:19;;;;;;;;;;;21.20;80.60;;;;;;5042251;28;20273;-74
2022/09/22 14:20:48;;;;;;;;;;;21.30;80.90;;;;;;5042606;28;19929;-77
2022/09/22 14:23:17;;;;;;;;;;;21.20;80.80;;;;;;5040420;28;19932;-77
2022/09/22 14:25:44;;;;;;;;;;;21.20;80.80;;;;;;5041404;28;20266;-77
2022/09/22 14:28:17;;;;;;;;;;;21.20;80.80;;;;;;5037728;28;19932;-77
2022/09/22 14:30:43;;;;;;;;;;;21.30;81.60;;;;;;5036147;28;20277;-77
2022/09/22 14:33:14;;;;;;;;;;;21.20;80.80;;;;;;5036084;28;20299;-77
2022/09/22 14:35:41;;;;;;;;;;;21.30;80.90;;;;;;5035822;28;19944;-78
2022/09/22 14:38:09;;;;;;;;;;;21.30;81.30;;;;;;5035776;28;20297;-77
2022/09/22 14:40:38;;;;;;;;;;;21.30;81.40;;;;;;5035669;28;19925;-77
2022/09/22 14:43:07;;;;;;;;;;;21.30;81.50;;;;;;5035943;28;19925;-77
2022/09/22 14:45:34;;;;;;;;;;;21.30;81.60;;;;;;5035896;28;19925;-77
2022/09/22 14:48:18;;;;;;;;;;;21.30;81.70;;;;;;5035796;28;20055;-77
2022/09/22 14:50:45;;;;;;;;;;;21.30;81.80;;;;;;5035642;28;19925;-77
2022/09/22 14:53:16;;;;;;;;;;;21.30;81.90;;;;;;5035229;28;19929;-77
2022/09/22 14:55:44;;;;;;;;;;;21.30;82.00;;;;;;5035827;28;20039;-77
2022/09/22 14:58:15;;;;;;;;;;;21.30;82.10;;;;;;5035334;28;20305;-77
2022/09/22 15:03:36;;;;;;;;;;;21.30;82.20;;;;;;5035375;28;19928;-77
2022/09/22 15:06:07;;;;;;;;;;;21.30;82.20;;;;;;5035472;28;19925;-77
2022/09/22 15:08:35;;;;;;;;;;;21.30;82.20;;;;;;5034961;28;20412;-77
2022/09/22 15:11:02;;;;;;;;;;;21.30;82.30;;;;;;5035375;28;19925;-78
2022/09/22 15:13:30;;;;;;;;;;;21.30;82.30;;;;;;5035006;28;19932;-77
2022/09/22 15:15:57;;;;;;;;;;;21.30;82.30;;;;;;5034972;28;19935;-77
2022/09/22 15:18:24;;;;;;;;;;;21.30;82.30;;;;;;5036254;28;19953;-77
2022/09/22 15:20:52;;;;;;;;;;;21.30;82.30;;;;;;5035054;28;20385;-77
2022/09/22 15:23:20;;;;;;;;;;;21.30;82.30;;;;;;5035547;28;19932;-77
2022/09/22 15:25:49;;;;;;;;;;;21.30;82.40;;;;;;5035246;28;20396;-77
2022/09/22 15:28:16;;;;;;;;;;;21.30;82.30;;;;;;5034960;28;19925;-78
2022/09/22 15:30:46;;;;;;;;;;;21.30;82.40;;;;;;5035014;28;19931;-78
2022/09/22 15:33:14;;;;;;;;;;;21.30;82.40;;;;;;5036338;28;19932;-79
2022/09/22 15:35:41;;;;;;;;;;;21.30;82.30;;;;;;5034975;28;19926;-77
2022/09/22 15:38:14;;;;;;;;;;;21.30;82.30;;;;;;5034940;28;19931;-79
2022/09/22 15:40:41;;;;;;;;;;;21.30;82.30;;;;;;5035355;28;19931;-78
2022/09/22 15:43:11;;;;;;;;;;;21.30;82.30;;;;;;5034652;28;19926;-78
2022/09/22 15:45:45;;;;;;;;;;;21.30;82.30;;;;;;5035188;28;19932;-74
2022/09/22 15:48:11;;;;;;;;;;;21.30;82.20;;;;;;5034964;28;19926;-75
2022/09/22 15:50:38;;;;;;;;;;;21.30;82.20;;;;;;5034900;28;20008;-75
2022/09/22 15:53:05;;;;;;;;;;;21.30;82.20;;;;;;5034456;28;20019;-75
2022/09/22 15:55:33;;;;;;;;;;;21.30;82.10;;;;;;5036243;28;19976;-74
2022/09/22 15:58:08;;;;;;;;;;;21.30;82.10;;;;;;5037417;28;19925;-74
2022/09/22 16:00:36;;;;;;;;;;;21.30;82.10;;;;;;5038118;28;20287;-74
2022/09/22 16:03:05;;;;;;;;;;;21.30;82.10;;;;;;5038243;28;19925;-74
2022/09/22 16:05:32;;;;;;;;;;;21.30;82.00;;;;;;5039380;28;19925;-74
2022/09/22 16:07:59;;;;;;;;;;;21.30;81.50;;;;;;5041805;28;19925;-74
2022/09/22 16:10:26;;;;;;;;;;;21.20;80.90;;;;;;5040408;28;20005;-74
2022/09/22 16:12:52;;;;;;;;;;;21.20;80.80;;;;;;5040474;28;19976;-74
2022/09/22 16:15:19;;;;;;;;;;;21.20;80.80;;;;;;5040576;28;19968;-74
2022/09/22 16:17:47;;;;;;;;;;;21.10;80.40;;;;;;5039417;28;19971;-74
2022/09/22 16:20:15;;;;;;;;;;;21.10;79.50;;;;;;5040248;28;20020;-74
2022/09/22 16:22:42;;;;;;;;;;;21.00;78.40;;;;;;5040241;28;19925;-75
2022/09/22 16:25:11;;;;;;;;;;;20.90;77.60;;;;;;5035743;28;20301;-75
2022/09/22 16:27:38;;;;;;;;;;;20.90;77.50;;;;;;5033766;28;20381;-75
2022/09/22 16:30:05;;;;;;;;;;;20.90;77.10;;;;;;5034113;28;19925;-75
2022/09/22 16:32:32;;;;;;;;;;;20.90;76.70;;;;;;5033670;28;19931;-75
2022/09/22 16:35:00;;;;;;;;;;;20.80;76.20;;;;;;5034067;28;19933;-73
2022/09/22 16:37:28;;;;;;;;;;;20.90;75.90;;;;;;5033939;28;19936;-74
2022/09/22 16:39:54;;;;;;;;;;;20.90;75.40;;;;;;5033977;28;20024;-74
2022/09/22 16:42:21;;;;;;;;;;;20.90;75.00;;;;;;5033946;28;19925;-74
2022/09/22 16:44:48;;;;;;;;;;;20.90;74.70;;;;;;5033936;28;19944;-74
2022/09/22 16:47:14;;;;;;;;;;;20.90;74.70;;;;;;5033882;28;19932;-74
2022/09/22 16:49:41;;;;;;;;;;;20.90;74.60;;;;;;5033609;28;19975;-74
2022/09/22 16:52:11;;;;;;;;;;;20.90;74.20;;;;;;5033495;28;20024;-74
2022/09/22 16:54:38;;;;;;;;;;;20.90;73.90;;;;;;5033844;28;19928;-74
2022/09/22 16:57:05;;;;;;;;;;;20.90;73.60;;;;;;5033524;28;19925;-74
2022/09/22 16:59:32;;;;;;;;;;;20.90;73.50;;;;;;5033543;28;19925;-74
2022/09/22 17:01:58;;;;;;;;;;;21.00;73.40;;;;;;5033895;28;19929;-75
2022/09/22 17:04:25;;;;;;;;;;;21.00;73.10;;;;;;5033867;28;20019;-75
2022/09/22 17:06:53;;;;;;;;;;;21.00;73.00;;;;;;5034331;28;20012;-74
2022/09/22 17:09:21;;;;;;;;;;;21.00;72.90;;;;;;5035778;28;19925;-74
2022/09/22 17:11:48;;;;;;;;;;;21.00;72.50;;;;;;5035766;28;19983;-75
2022/09/22 17:14:16;;;;;;;;;;;21.00;72.30;;;;;;5035502;28;19931;-74
2022/09/22 17:16:46;;;;;;;;;;;21.00;72.10;;;;;;5036485;28;20024;-75
2022/09/22 17:19:15;;;;;;;;;;;21.00;71.90;;;;;;5039287;28;19909;-75
2022/09/22 17:21:43;;;;;;;;;;;21.00;71.70;;;;;;5038473;28;19925;-76
2022/09/22 17:24:09;;;;;;;;;;;21.00;71.60;;;;;;5038912;28;19929;-74
2022/09/22 17:26:40;;;;;;;;;;;21.00;71.40;;;;;;5038635;28;19925;-75
2022/09/22 17:29:06;;;;;;;;;;;21.00;71.30;;;;;;5038662;28;20348;-75
2022/09/22 17:31:34;;;;;;;;;;;21.00;71.10;;;;;;5038853;28;19925;-75
2022/09/22 17:34:01;;;;;;;;;;;21.00;71.00;;;;;;5037645;28;19929;-75
2022/09/22 17:36:28;;;;;;;;;;;21.00;71.00;;;;;;5037033;28;19932;-74
2022/09/22 17:38:55;;;;;;;;;;;21.00;71.60;;;;;;5036837;28;19931;-76
2022/09/22 17:41:23;;;;;;;;;;;21.00;70.80;;;;;;5037510;28;20292;-75
2022/09/22 17:43:56;;;;;;;;;;;21.00;70.70;;;;;;5037187;28;19925;-75
2022/09/22 17:46:23;;;;;;;;;;;21.00;70.60;;;;;;5036935;28;19933;-75
2022/09/22 17:57:05;;;;;;;;;;;21.00;70.40;;;;;;5036785;28;19928;-75
2022/09/22 17:59:33;;;;;;;;;;;21.00;70.40;;;;;;5036842;28;19925;-76
2022/09/22 18:02:00;;;;;;;;;;;21.00;70.40;;;;;;5036875;28;19931;-76
2022/09/22 18:04:26;;;;;;;;;;;21.10;71.20;;;;;;5036893;28;20305;-76
2022/09/22 18:06:53;;;;;;;;;;;21.10;70.50;;;;;;5036419;28;19932;-76
2022/09/22 18:09:20;;;;;;;;;;;21.10;70.40;;;;;;5036458;28;19925;-76
2022/09/22 18:11:47;;;;;;;;;;;21.00;70.30;;;;;;5036562;28;20027;-77
2022/09/22 18:14:13;;;;;;;;;;;21.10;70.40;;;;;;5036565;28;19925;-75
2022/09/22 18:16:42;;;;;;;;;;;21.10;70.40;;;;;;5037247;28;19931;-75
2022/09/22 18:19:09;;;;;;;;;;;21.10;70.50;;;;;;5037483;28;19929;-75
2022/09/22 18:21:38;;;;;;;;;;;21.10;70.40;;;;;;5037150;28;20024;-75
2022/09/22 18:24:05;;;;;;;;;;;21.10;70.50;;;;;;5037490;28;19929;-75
2022/09/22 18:26:36;;;;;;;;;;;21.10;70.50;;;;;;5037164;28;19933;-75
2022/09/22 18:29:06;;;;;;;;;;;21.00;70.40;;;;;;5037139;28;19925;-75
2022/09/22 18:31:33;;;;;;;;;;;21.10;70.50;;;;;;5037395;28;19925;-74
2022/09/22 18:34:00;;;;;;;;;;;21.10;70.60;;;;;;5037449;28;19932;-75
2022/09/22 18:36:27;;;;;;;;;;;21.10;70.60;;;;;;5036381;28;20297;-75
2022/09/22 18:38:54;;;;;;;;;;;21.00;70.60;;;;;;5035899;28;19925;-75
2022/09/22 18:41:21;;;;;;;;;;;21.10;70.80;;;;;;5036037;28;19932;-74
2022/09/22 18:43:50;;;;;;;;;;;21.10;70.80;;;;;;5036009;28;19932;-74
2022/09/22 18:46:18;;;;;;;;;;;21.10;70.90;;;;;;5035626;28;20396;-75
2022/09/22 18:48:45;;;;;;;;;;;21.10;70.90;;;;;;5035464;28;20308;-74
2022/09/22 18:51:13;;;;;;;;;;;21.10;70.90;;;;;;5035557;28;20373;-75
2022/09/22 18:53:40;;;;;;;;;;;21.10;71.10;;;;;;5035685;28;20012;-75
2022/09/22 18:56:10;;;;;;;;;;;21.10;71.20;;;;;;5035365;28;20319;-75
2022/09/22 18:58:37;;;;;;;;;;;21.10;71.20;;;;;;5035651;28;20296;-74
2022/09/22 19:01:05;;;;;;;;;;;21.10;71.10;;;;;;5035636;28;19979;-74
2022/09/22 19:03:31;;;;;;;;;;;21.10;71.10;;;;;;5035584;28;19976;-74
2022/09/22 19:05:58;;;;;;;;;;;21.10;71.10;;;;;;5035538;28;20007;-74
2022/09/22 19:08:26;;;;;;;;;;;21.10;71.20;;;;;;5035849;28;19931;-75
2022/09/22 19:10:52;;;;;;;;;;;21.10;71.80;;;;;;5035022;28;19932;-75
2022/09/22 19:13:19;;;;;;;;;;;21.10;71.10;;;;;;5035279;28;19929;-75
2022/09/22 19:15:46;;;;;;;;;;;21.10;71.10;;;;;;5035038;28;20376;-74
2022/09/22 19:18:13;;;;;;;;;;;21.10;71.10;;;;;;5034839;28;20440;-73
2022/09/22 19:20:42;;;;;;;;;;;21.10;71.10;;;;;;5035206;28;19929;-74
2022/09/22 19:23:08;;;;;;;;;;;21.10;71.10;;;;;;5035149;28;19925;-74
2022/09/22 19:25:37;;;;;;;;;;;21.10;71.10;;;;;;5035113;28;19979;-74
2022/09/22 19:28:05;;;;;;;;;;;21.10;71.10;;;;;;5034784;28;20016;-74
2022/09/22 19:30:32;;;;;;;;;;;21.00;71.00;;;;;;5035135;28;19932;-74
2022/09/22 19:32:59;;;;;;;;;;;21.10;71.10;;;;;;5034618;28;20376;-74
2022/09/22 19:35:26;;;;;;;;;;;21.10;71.10;;;;;;5034991;28;19925;-74
2022/09/22 19:37:53;;;;;;;;;;;21.10;71.10;;;;;;5034830;28;19947;-74
2022/09/22 19:40:23;;;;;;;;;;;21.00;71.10;;;;;;5033872;28;19929;-74
2022/09/22 19:42:51;;;;;;;;;;;21.10;71.10;;;;;;5034563;28;19925;-74
2022/09/22 19:45:18;;;;;;;;;;;21.00;71.10;;;;;;5034817;28;19929;-74
2022/09/22 19:47:45;;;;;;;;;;;21.00;71.10;;;;;;5034599;28;20381;-74
2022/09/22 19:50:13;;;;;;;;;;;21.00;71.10;;;;;;5034639;28;19928;-74
2022/09/22 19:52:40;;;;;;;;;;;21.00;71.10;;;;;;5034230;28;19925;-74
2022/09/22 19:55:07;;;;;;;;;;;21.00;71.20;;;;;;5034561;28;20403;-74
2022/09/22 19:57:40;;;;;;;;;;;21.00;71.20;;;;;;5034215;28;19925;-74
2022/09/22 20:00:11;;;;;;;;;;;21.00;71.20;;;;;;5034856;28;19929;-74
2022/09/22 20:02:38;;;;;;;;;;;21.00;71.30;;;;;;5034374;28;19948;-74
2022/09/22 20:05:08;;;;;;;;;;;21.00;71.30;;;;;;5034483;28;19925;-74
2022/09/22 20:07:35;;;;;;;;;;;21.00;71.30;;;;;;5034123;28;20394;-74
2022/09/22 20:10:02;;;;;;;;;;;21.00;71.30;;;;;;5034192;28;20424;-74
2022/09/22 20:12:28;;;;;;;;;;;21.00;71.30;;;;;;5034230;28;20424;-74
2022/09/22 20:14:55;;;;;;;;;;;21.00;71.40;;;;;;5034000;28;20020;-74
2022/09/22 20:17:23;;;;;;;;;;;21.00;71.40;;;;;;5033867;28;20008;-74
2022/09/22 20:19:50;;;;;;;;;;;21.00;71.40;;;;;;5033957;28;19925;-73
2022/09/22 20:22:18;;;;;;;;;;;21.00;71.50;;;;;;5034206;28;20027;-73
2022/09/22 20:24:49;;;;;;;;;;;21.00;71.50;;;;;;5034730;28;19933;-73
2022/09/22 20:27:15;;;;;;;;;;;21.00;71.50;;;;;;5034283;28;19936;-74
2022/09/22 20:29:42;;;;;;;;;;;21.00;71.60;;;;;;5034132;28;20024;-74
2022/09/22 20:32:09;;;;;;;;;;;21.00;71.60;;;;;;5034089;28;20017;-74
2022/09/22 20:34:37;;;;;;;;;;;21.00;71.70;;;;;;5034090;28;20019;-74
2022/09/22 20:37:04;;;;;;;;;;;21.00;71.70;;;;;;5034121;28;19975;-74
2022/09/22 20:39:31;;;;;;;;;;;21.00;71.70;;;;;;5033959;28;19937;-74
2022/09/22 20:41:58;;;;;;;;;;;21.00;71.70;;;;;;5034027;28;19925;-74
2022/09/22 20:44:25;;;;;;;;;;;21.00;71.70;;;;;;5034003;28;19957;-73
2022/09/22 20:46:51;;;;;;;;;;;21.00;71.80;;;;;;5033636;28;20422;-73
2022/09/22 20:49:18;;;;;;;;;;;21.00;71.80;;;;;;5033788;28;20016;-73
2022/09/22 20:51:47;;;;;;;;;;;21.00;71.80;;;;;;5034954;28;19979;-73
2022/09/22 20:54:14;;;;;;;;;;;21.00;71.80;;;;;;5037592;28;19926;-73
2022/09/22 20:56:40;;;;;;;;;;;21.00;71.80;;;;;;5037931;28;19932;-73
2022/09/22 20:59:07;;;;;;;;;;;21.00;71.80;;;;;;5037870;28;20266;-73
2022/09/22 21:01:34;;;;;;;;;;;21.00;71.80;;;;;;5037923;28;20360;-73
2022/09/22 21:04:01;;;;;;;;;;;21.00;71.80;;;;;;5037841;28;19925;-74
2022/09/22 21:06:29;;;;;;;;;;;21.00;71.90;;;;;;5037826;28;20016;-73
2022/09/22 21:11:42;;;;;;;;;;;21.00;71.80;;;;;;5038114;28;20022;-74
2022/09/22 21:14:08;;;;;;;;;;;21.00;71.90;;;;;;5037557;28;19925;-74
2022/09/22 21:16:36;;;;;;;;;;;21.00;72.00;;;;;;5037615;28;20020;-74
2022/09/22 21:19:03;;;;;;;;;;;21.00;71.90;;;;;;5037182;28;20308;-74
2022/09/22 21:21:31;;;;;;;;;;;21.00;71.90;;;;;;5037556;28;20035;-74
2022/09/22 21:24:00;;;;;;;;;;;21.00;71.90;;;;;;5037221;28;19925;-74
2022/09/22 21:26:28;;;;;;;;;;;21.00;71.90;;;;;;5037498;28;19960;-74
2022/09/22 21:28:55;;;;;;;;;;;21.00;72.00;;;;;;5037072;28;19925;-74
2022/09/22 21:31:22;;;;;;;;;;;21.00;72.00;;;;;;5037328;28;19932;-74
